createdAt,value
2022-12-20T00:04:28.436Z,73.85
2022-12-20T00:09:30.579Z,78.63
2022-12-20T00:14:32.564Z,72.93
2022-12-20T00:19:34.402Z,75.13
2022-12-20T00:24:36.701Z,73.50
2022-12-20T00:29:38.550Z,76.47
2022-12-20T00:34:40.430Z,98.75
2022-12-20T00:39:42.283Z,77.78
2022-12-20T00:44:44.642Z,68.45
2022-12-20T00:49:46.484Z,70.13
2022-12-20T00:54:49.925Z,68.63
2022-12-20T00:59:51.758Z,68.03
2022-12-20T01:04:53.671Z,68.25
2022-12-20T01:09:55.511Z,65.22
2022-12-20T01:14:57.439Z,70.88
2022-12-20T01:19:59.412Z,67.55
2022-12-20T01:25:01.366Z,70.25
2022-12-20T01:30:05.377Z,70.13
2022-12-20T01:35:07.442Z,70.68
2022-12-20T01:40:10.467Z,77.18
2022-12-20T01:45:20.619Z,68.63
2022-12-20T01:50:24.162Z,70.90
2022-12-20T01:55:28.061Z,63.72
2022-12-20T02:00:30.343Z,65.50
2022-12-20T02:05:42.128Z,62.97
2022-12-20T02:10:50.453Z,64.72
2022-12-20T02:15:56.400Z,64.72
2022-12-20T02:21:05.435Z,59.35
2022-12-20T02:26:28.623Z,60.03
2022-12-20T02:31:38.750Z,53.47
2022-12-20T02:36:41.535Z,62.67
2022-12-20T02:42:06.603Z,59.42
2022-12-20T02:47:13.805Z,59.28
2022-12-20T02:52:17.574Z,55.65
2022-12-20T02:57:28.701Z,55.50
2022-12-20T03:02:52.253Z,53.88
2022-12-20T03:18:04.960Z,53.22
2022-12-20T03:23:07.387Z,51.28
2022-12-20T03:28:09.337Z,51.15
2022-12-20T03:33:11.521Z,52.20
2022-12-20T03:38:15.565Z,49.42
2022-12-20T03:43:17.901Z,52.15
2022-12-20T03:48:19.989Z,49.92
2022-12-20T03:53:23.110Z,49.08
2022-12-20T03:58:26.499Z,48.70
2022-12-20T04:03:29.282Z,47.03
2022-12-20T04:08:31.380Z,51.25
2022-12-20T04:13:33.743Z,50.50
2022-12-20T04:18:35.728Z,44.28
2022-12-20T04:23:41.133Z,51.58
2022-12-20T04:33:47.173Z,47.25
2022-12-20T04:38:49.289Z,46.73
2022-12-20T04:43:53.327Z,45.45
2022-12-20T04:48:59.250Z,50.10
2022-12-20T04:54:01.888Z,50.92
2022-12-20T05:04:20.653Z,50.22
2022-12-20T05:09:22.992Z,47.20
2022-12-20T05:14:24.999Z,48.15
2022-12-20T05:19:27.342Z,46.85
2022-12-20T05:24:47.970Z,61.08
2022-12-20T05:29:59.369Z,46.08
2022-12-20T05:40:07.663Z,50.53
2022-12-20T05:45:11.197Z,42.22
2022-12-20T05:50:22.654Z,47.35
2022-12-20T05:55:49.623Z,43.40
2022-12-20T06:00:52.772Z,39.63
2022-12-20T06:05:55.758Z,38.40
2022-12-20T06:11:04.978Z,37.70
2022-12-20T06:16:12.566Z,38.83
2022-12-20T06:21:14.635Z,33.33
2022-12-20T06:26:16.756Z,33.85
2022-12-20T06:31:25.488Z,36.38
2022-12-20T06:36:29.352Z,41.40
2022-12-20T06:41:31.549Z,42.97
2022-12-20T06:46:34.164Z,38.22
2022-12-20T06:51:36.078Z,38.03
2022-12-20T06:56:41.522Z,40.38
2022-12-20T07:01:46.105Z,56.15
2022-12-20T07:06:48.173Z,70.82
2022-12-20T07:11:50.161Z,71.07
2022-12-20T07:16:52.087Z,35.30
2022-12-20T07:21:54.518Z,37.90
2022-12-20T07:26:56.520Z,39.65
2022-12-20T07:31:58.499Z,36.35
2022-12-20T07:37:00.392Z,37.22
2022-12-20T07:42:02.520Z,35.13
2022-12-20T07:47:16.462Z,41.95
2022-12-20T07:52:23.081Z,40.45
2022-12-20T07:57:38.667Z,35.05
2022-12-20T08:02:46.243Z,39.80
2022-12-20T08:07:52.236Z,45.35
2022-12-20T08:12:58.391Z,37.50
2022-12-20T08:18:00.477Z,39.97
2022-12-20T08:23:05.562Z,41.60
2022-12-20T08:28:07.436Z,37.92
2022-12-20T08:33:09.651Z,36.65
2022-12-20T08:38:11.583Z,35.28
2022-12-20T08:43:13.566Z,36.17
2022-12-20T08:48:15.582Z,35.00
2022-12-20T08:53:17.439Z,36.83
2022-12-20T08:58:20.429Z,33.80
2022-12-20T09:03:22.875Z,38.17
2022-12-20T09:08:24.806Z,42.05
2022-12-20T09:13:26.711Z,38.97
2022-12-20T09:18:28.656Z,34.58
2022-12-20T09:23:32.178Z,42.97
2022-12-20T09:28:34.399Z,42.67
2022-12-20T09:33:36.536Z,34.92
2022-12-20T09:38:38.477Z,39.08
2022-12-20T09:43:41.789Z,36.00
2022-12-20T09:48:45.091Z,36.25
2022-12-20T09:54:05.657Z,37.58
2022-12-20T09:59:17.893Z,36.78
2022-12-20T10:04:28.909Z,42.22
2022-12-20T10:10:13.015Z,37.72
2022-12-20T10:15:34.069Z,40.20
2022-12-20T10:21:00.898Z,43.28
2022-12-20T10:26:09.655Z,39.85
2022-12-20T10:31:16.244Z,35.78
2022-12-20T10:36:28.762Z,40.15
2022-12-20T10:41:44.780Z,44.13
2022-12-20T10:46:49.682Z,36.38
2022-12-20T10:51:53.705Z,36.05
2022-12-20T10:56:59.428Z,37.65
2022-12-20T11:02:02.618Z,36.03
2022-12-20T11:07:24.696Z,34.80
2022-12-20T11:12:27.476Z,36.72
2022-12-20T11:17:41.377Z,34.30
2022-12-20T11:22:43.168Z,36.58
2022-12-20T11:28:21.839Z,40.20
2022-12-20T11:33:36.945Z,37.20
2022-12-20T11:38:47.574Z,41.47
2022-12-20T11:44:24.486Z,35.55
2022-12-20T11:49:35.409Z,44.57
2022-12-20T11:54:50.005Z,42.17
2022-12-20T11:59:57.767Z,42.00
2022-12-20T12:05:15.513Z,42.22
2022-12-20T12:10:24.378Z,41.70
2022-12-20T12:15:40.480Z,41.67
2022-12-20T12:20:48.654Z,50.67
2022-12-20T12:25:50.785Z,75.72
2022-12-20T12:31:04.945Z,89.13
2022-12-20T12:36:34.454Z,62.13
2022-12-20T12:42:09.156Z,52.28
2022-12-20T12:47:34.974Z,50.95
2022-12-20T12:52:51.971Z,50.17
2022-12-20T12:57:58.182Z,51.20
2022-12-20T13:03:14.294Z,54.67
2022-12-20T13:08:17.870Z,49.38
2022-12-20T13:13:23.993Z,48.13
2022-12-20T13:18:26.782Z,42.95
2022-12-20T13:23:28.742Z,46.60
2022-12-20T13:28:50.801Z,50.65
2022-12-20T13:33:52.787Z,52.17
2022-12-20T13:38:57.049Z,48.90
2022-12-20T13:44:08.263Z,52.40
2022-12-20T13:49:21.705Z,44.80
2022-12-20T13:54:27.388Z,45.13
2022-12-20T13:59:33.365Z,45.97
2022-12-20T14:04:46.145Z,44.72
2022-12-20T14:09:56.780Z,53.55
2022-12-20T14:14:59.541Z,56.00
2022-12-20T14:20:10.633Z,57.38
2022-12-20T14:25:17.124Z,53.38
2022-12-20T14:30:30.408Z,51.75
2022-12-20T14:35:32.458Z,63.33
2022-12-20T14:40:41.779Z,72.70
2022-12-20T14:45:43.843Z,97.50
2022-12-20T14:50:53.610Z,86.00
2022-12-20T14:55:55.786Z,125.78
2022-12-20T15:01:04.171Z,61.40
2022-12-20T15:06:26.200Z,54.63
2022-12-20T15:11:28.306Z,51.65
2022-12-20T15:16:31.019Z,52.97
2022-12-20T15:21:41.035Z,45.50
2022-12-20T15:26:43.324Z,51.30
2022-12-20T15:31:46.517Z,57.13
2022-12-20T15:36:48.481Z,60.78
2022-12-20T15:41:50.534Z,70.78
2022-12-20T15:46:52.898Z,107.63
2022-12-20T15:51:55.587Z,113.15
2022-12-20T15:56:59.730Z,104.22
2022-12-20T16:02:02.068Z,90.72
2022-12-20T16:07:07.533Z,92.72
2022-12-20T16:12:21.501Z,95.90
2022-12-20T16:17:24.020Z,94.25
2022-12-20T16:22:26.565Z,110.28
2022-12-20T16:27:28.694Z,69.18
2022-12-20T16:32:30.566Z,78.60
2022-12-20T16:37:37.273Z,64.85
2022-12-20T16:42:41.411Z,65.30
2022-12-20T16:47:43.642Z,61.90
2022-12-20T16:52:46.570Z,56.10
2022-12-20T16:57:49.171Z,58.30
2022-12-20T17:02:51.887Z,66.10
2022-12-20T17:07:54.695Z,63.90
2022-12-20T17:12:56.961Z,80.63
2022-12-20T17:17:59.039Z,72.32
2022-12-20T17:28:20.310Z,58.20
2022-12-20T17:33:22.142Z,64.60
2022-12-20T17:38:24.044Z,70.80
2022-12-20T17:43:25.867Z,126.75
2022-12-20T17:48:33.258Z,141.23
2022-12-20T17:53:37.148Z,96.25
2022-12-20T17:58:39.051Z,75.43
2022-12-20T18:04:03.079Z,89.53
2022-12-20T18:09:03.056Z,81.97
2022-12-20T18:14:04.883Z,104.70
2022-12-20T18:19:18.112Z,74.00
2022-12-20T18:24:21.768Z,70.45
2022-12-20T18:34:25.641Z,83.00
2022-12-20T18:39:27.697Z,74.15
2022-12-20T18:44:29.680Z,85.85
2022-12-20T18:49:31.592Z,96.28
2022-12-20T18:54:33.681Z,85.10
2022-12-20T18:59:35.603Z,117.40
2022-12-20T19:04:37.445Z,96.20
2022-12-20T19:09:39.315Z,112.85
2022-12-20T19:14:41.173Z,92.35
2022-12-20T19:19:43.262Z,121.32
2022-12-20T19:24:45.098Z,86.55
2022-12-20T19:29:47.814Z,70.80
2022-12-20T19:34:49.646Z,56.00
2022-12-20T19:39:51.528Z,73.95
2022-12-20T19:44:53.485Z,59.67
2022-12-20T19:49:55.325Z,86.30
2022-12-20T19:55:00.977Z,68.00
2022-12-20T20:00:03.342Z,49.92
2022-12-20T20:05:15.355Z,64.68
2022-12-20T20:10:17.958Z,64.55
2022-12-20T20:15:19.847Z,61.55
2022-12-20T20:20:23.303Z,66.15
2022-12-20T20:25:25.165Z,86.13
2022-12-20T20:30:27.596Z,62.25
2022-12-20T20:35:29.464Z,82.25
2022-12-20T20:40:32.637Z,94.70
2022-12-20T20:45:34.571Z,76.45
2022-12-20T20:50:36.993Z,114.18
2022-12-20T20:55:39.013Z,134.88
2022-12-20T21:00:40.880Z,105.28
2022-12-20T21:11:07.142Z,150.57
2022-12-20T21:16:12.096Z,98.55
2022-12-20T21:21:14.320Z,78.07
2022-12-20T21:26:18.654Z,142.65
2022-12-20T21:31:20.640Z,118.45
2022-12-20T21:36:22.985Z,158.60
2022-12-20T21:41:27.089Z,120.50
2022-12-20T21:46:31.886Z,113.20
2022-12-20T21:51:35.366Z,109.28
2022-12-20T21:56:37.246Z,103.95
2022-12-20T22:01:39.256Z,88.45
2022-12-20T22:06:42.313Z,116.78
2022-12-20T22:11:48.197Z,92.27
2022-12-20T22:16:50.102Z,89.20
2022-12-20T22:21:57.672Z,110.70
2022-12-20T22:27:01.985Z,97.50
2022-12-20T22:32:05.834Z,109.28
2022-12-20T22:37:07.739Z,115.45
2022-12-20T22:42:10.109Z,119.55
2022-12-20T22:47:12.203Z,104.88
2022-12-20T22:52:14.044Z,110.60
2022-12-20T22:57:16.001Z,82.43
2022-12-20T23:02:18.029Z,77.13
2022-12-20T23:07:21.569Z,90.72
2022-12-20T23:12:42.073Z,106.32
2022-12-20T23:17:43.927Z,98.13
2022-12-20T23:22:46.295Z,97.07
2022-12-20T23:27:49.536Z,80.85
2022-12-20T23:32:51.809Z,74.20
2022-12-20T23:37:56.009Z,69.97
2022-12-20T23:42:57.899Z,64.85
2022-12-20T23:47:59.815Z,71.47
2022-12-20T23:53:02.002Z,67.05
2022-12-20T23:58:04.208Z,57.55
